Map

Track Data

SID SEASON NUMBER BASIN SUBBASIN NAME ISO_TIME NATURE LAT LON WMO_WIND WMO_PRES WMO_AGENCY TRACK_TYPE DIST2LAND LANDFALL IFLAG USA_AGENCY USA_ATCF_ID USA_LAT USA_LON USA_RECORD USA_STATUS USA_WIND USA_PRES USA_SSHS USA_R34_NE USA_R34_SE USA_R34_SW USA_R34_NW USA_R50_NE USA_R50_SE USA_R50_SW USA_R50_NW USA_R64_NE USA_R64_SE USA_R64_SW USA_R64_NW USA_POCI USA_ROCI USA_RMW USA_EYE TOKYO_LAT TOKYO_LON TOKYO_GRADE TOKYO_WIND TOKYO_PRES TOKYO_R50_DIR TOKYO_R50_LONG TOKYO_R50_SHORT TOKYO_R30_DIR TOKYO_R30_LONG TOKYO_R30_SHORT TOKYO_LAND CMA_LAT CMA_LON CMA_CAT CMA_WIND CMA_PRES HKO_LAT HKO_LON HKO_CAT HKO_WIND HKO_PRES NEWDELHI_LAT NEWDELHI_LON NEWDELHI_GRADE NEWDELHI_WIND NEWDELHI_PRES NEWDELHI_CI NEWDELHI_DP NEWDELHI_POCI REUNION_LAT REUNION_LON REUNION_TYPE REUNION_WIND REUNION_PRES REUNION_TNUM REUNION_CI REUNION_RMW REUNION_R34_NE REUNION_R34_SE REUNION_R34_SW REUNION_R34_NW REUNION_R50_NE REUNION_R50_SE REUNION_R50_SW REUNION_R50_NW REUNION_R64_NE REUNION_R64_SE REUNION_R64_SW REUNION_R64_NW BOM_LAT BOM_LON BOM_TYPE BOM_WIND BOM_PRES BOM_TNUM BOM_CI BOM_RMW BOM_R34_NE BOM_R34_SE BOM_R34_SW BOM_R34_NW BOM_R50_NE BOM_R50_SE BOM_R50_SW BOM_R50_NW BOM_R64_NE BOM_R64_SE BOM_R64_SW BOM_R64_NW BOM_ROCI BOM_POCI BOM_EYE BOM_POS_METHOD BOM_PRES_METHOD NADI_LAT NADI_LON NADI_CAT NADI_WIND NADI_PRES WELLINGTON_LAT WELLINGTON_LON WELLINGTON_WIND WELLINGTON_PRES DS824_LAT DS824_LON DS824_STAGE DS824_WIND DS824_PRES TD9636_LAT TD9636_LON TD9636_STAGE TD9636_WIND TD9636_PRES TD9635_LAT TD9635_LON TD9635_WIND TD9635_PRES TD9635_ROCI NEUMANN_LAT NEUMANN_LON NEUMANN_CLASS NEUMANN_WIND NEUMANN_PRES MLC_LAT MLC_LON MLC_CLASS MLC_WIND MLC_PRES USA_GUST BOM_GUST BOM_GUST_PER REUNION_GUST REUNION_GUST_PER USA_SEAHGT USA_SEARAD_NE USA_SEARAD_SE USA_SEARAD_SW USA_SEARAD_NW STORM_SPEED STORM_DIR
1960248N15148 1960 67 WP MM HESTER 1960-09-04 00:00:00 TS 14.7000 148.133 1008 tokyo main 1883 1883 OOO______OOO__ jtwc_wp WP191960 14.7000 148.200 25 -1 14.7000 148.000 2 1008 0 0 0 14.7000 148.000 0 1008 14.7000 148.200 TC 25 14.7000 148.200 1 25 14.7000 148.200 25 1003 120 5 328
1960248N15148 1960 67 WP MM HESTER 1960-09-04 03:00:00 TS 14.9306 147.985 main 1905 1905 PPP______PPP__ WP191960 14.9025 148.058 25 -1 15.0100 147.798 2 1007 0 0 15.0100 147.870 0 1007 14.9025 148.058 TC 25 14.8561 148.071 1 26 14.9025 148.058 25 1003 120 5 327
1960248N15148 1960 67 WP MM HESTER 1960-09-04 06:00:00 TS 15.1550 147.821 1006 tokyo main 1938 1938 OOO______OPO__ jtwc_wp WP191960 15.1000 147.900 25 -1 15.3000 147.600 2 1006 0 0 0 15.3000 147.700 1 29 1006 15.1000 147.900 TC 25 15.0297 147.924 1 27 15.1000 147.900 25 1003 120 6 322
1960248N15148 1960 67 WP MM HESTER 1960-09-04 09:00:00 TS 15.3718 147.626 main 1960 1960 PPP______PPP__ WP191960 15.2925 147.715 27 -1 15.5575 147.407 2 1006 0 0 15.5575 147.465 1 29 1006 15.2925 147.715 TC 27 15.2385 147.740 1 28 15.2925 147.715 27 1002 120 6 318
1960248N15148 1960 67 WP MM HESTER 1960-09-04 12:00:00 TS 15.6000 147.400 1006 tokyo main 1982 1982 OOO______OOO__ jtwc_wp WP191960 15.5000 147.500 30 -1 15.8000 147.200 2 1006 0 0 0 15.8000 147.200 1 29 1006 15.5000 147.500 TC 30 15.5000 147.500 1 30 15.5000 147.500 30 1002 120 7 317
1960248N15148 1960 67 WP MM HESTER 1960-09-04 15:00:00 TS 15.8444 147.162 main 2005 2005 PPP______PPP__ WP191960 15.7199 147.280 32 -1 16.0349 146.972 2 1006 0 0 16.0499 146.965 1 29 1005 15.7199 147.280 TC 32 15.8219 147.195 1 31 15.7199 147.280 32 1001 120 7 316
1960248N15148 1960 67 WP MM HESTER 1960-09-04 18:00:00 TS 16.1288 146.875 1006 tokyo main 2038 2038 OOO______OPO__ jtwc_wp WP191960 16.0000 147.000 35 0 16.3000 146.700 2 1006 0 0 0 16.3000 146.700 1 29 1004 16.0000 147.000 TC 35 16.1730 146.851 1 32 16.0000 147.000 35 1000 120 9 315
1960248N15148 1960 67 WP MM HESTER 1960-09-04 21:00:00 TS 16.4955 146.494 main 2083 2083 PPP______PPP__ WP191960 16.4227 146.578 35 0 16.6500 146.365 2 1004 0 0 16.5425 146.357 1 33 1003 16.4227 146.578 TC 35 16.5125 146.507 1 33 16.4227 146.578 35 998 120 10 315
1960248N15148 1960 67 WP MM HESTER 1960-09-05 00:00:00 TS 16.8333 146.133 1002 tokyo main 2113 2086 OOO______OOO__ jtwc_wp WP191960 16.8000 146.200 35 0 17.0000 146.000 9 1002 0 0 0 16.8000 146.000 2 38 1002 16.8000 146.200 TC 35 16.8000 146.200 2 35 16.8000 146.200 35 997 120 8 313
1960248N15148 1960 67 WP MM HESTER 1960-09-05 03:00:00 TS 17.0098 145.907 main 2086 2069 PPP______PPP__ WP191960 16.9373 146.077 37 0 17.2576 145.612 9 1002 0 0 17.0925 145.663 2 38 1002 16.9373 146.077 TC 37 16.8970 145.937 2 36 16.9373 146.077 37 996 120 5 309
1960248N15148 1960 67 WP MM HESTER 1960-09-05 06:00:00 TS 17.1421 145.737 1002 tokyo main 2069 2045 OOO______OPO__ jtwc_wp WP191960 17.0000 146.000 40 0 17.5000 145.300 9 1002 0 0 0 17.4000 145.400 2 38 1002 17.0000 146.000 TC 40 16.9524 145.722 2 37 17.0000 146.000 40 996 120 4 308
1960248N15148 1960 67 WP MM HESTER 1960-09-05 09:00:00 TS 17.2832 145.546 main 2042 2017 PPP______PPP__ WP191960 17.0525 145.772 40 0 17.7924 145.140 9 1002 0 0 17.6924 145.247 2 38 1002 17.0525 145.772 TC 40 17.0565 145.572 2 38 17.0525 145.772 40 995 120 5 320
1960248N15148 1960 67 WP MM HESTER 1960-09-05 12:00:00 TS 17.5500 145.383 1002 tokyo main 2007 1947 OOO______OOO__ jtwc_wp WP191960 17.3000 145.500 40 0 18.1000 145.100 9 1002 0 0 0 18.0000 145.200 2 38 1002 17.3000 145.500 TC 40 17.3000 145.500 2 40 17.3000 145.500 40 995 120 9 339
1960248N15148 1960 67 WP MM HESTER 1960-09-05 15:00:00 TS 18.0975 145.222 main 1947 1883 PPP______PPP__ WP191960 17.9900 145.146 40 0 18.3925 145.120 9 1002 0 0 18.3425 145.227 2 38 1002 17.9900 145.146 TC 40 17.8803 145.548 2 36 17.9900 145.146 40 995 120 12 351
1960248N15148 1960 67 WP MM HESTER 1960-09-05 18:00:00 TS 18.7321 145.195 1002 tokyo main 1883 1824 OOO______OPO__ jtwc_wp WP191960 18.8000 145.000 40 0 18.7000 145.200 9 1002 0 0 0 18.7000 145.300 2 38 1002 18.8000 145.000 TC 40 18.5926 145.668 2 32 18.8000 145.000 40 996 120 12 10
1960248N15148 1960 67 WP MM HESTER 1960-09-05 21:00:00 TS 19.2834 145.449 main 1824 1790 PPP______PPP__ WP191960 19.4331 145.418 32 -1 19.0425 145.292 9 1004 0 0 19.0500 145.343 2 33 1004 19.4331 145.418 TC 32 19.3086 145.804 2 28 19.4331 145.418 32 997 120 11 27
1960248N15148 1960 67 WP MM HESTER 1960-09-06 00:00:00 TS 19.7333 145.733 1006 tokyo main 1790 1761 OOO______OOO__ jtwc_wp WP191960 19.9000 145.900 25 -1 19.4000 145.400 9 1006 0 0 0 19.4000 145.400 1 29 1006 19.9000 145.900 TC 25 19.9000 145.900 1 25 19.9000 145.900 25 999 120 8 22
1960248N15148 1960 67 WP MM HESTER 1960-09-06 03:00:00 TS 20.0313 145.778 main 1761 1736 PPP______PPP__ WP191960 20.1673 145.933 25 -1 19.7425 145.500 9 1006 0 0 19.7500 145.493 1 29 1006 20.1673 145.933 TC 25 20.1936 145.876 1 25 20.1673 145.933 25 1000 120 5 0
1960248N15148 1960 67 WP MM HESTER 1960-09-06 06:00:00 TS 20.2416 145.734 1006 tokyo main 1736 1715 OOO______OPO__ jtwc_wp WP191960 20.3000 145.800 25 -1 20.1000 145.600 9 1006 0 0 0 20.1000 145.600 1 29 1006 20.3000 145.800 TC 25 20.3499 145.803 1 25 20.3000 145.800 25 1001 120 4 351
1960248N15148 1960 67 WP MM HESTER 1960-09-06 09:00:00 TS 20.4377 145.702 main 1715 1694 PPP______PPP__ WP191960 20.4075 145.707 25 -1 20.5150 145.693 9 1006 0 0 20.4575 145.693 1 29 1006 20.4075 145.707 TC 25 20.4312 145.704 1 25 20.4075 145.707 25 1001 150 4 349
1960248N15148 1960 67 WP MM HESTER 1960-09-06 12:00:00 TS 20.6167 145.667 1006 tokyo main 1694 1669 OOO______OOO__ jtwc_wp WP191960 20.5000 145.600 25 -1 20.9000 145.800 9 1006 0 0 0 20.8000 145.800 1 29 1006 20.5000 145.600 TC 25 20.5000 145.600 1 25 20.5000 145.600 25 1002 180 4 352
1960248N15148 1960 67 WP MM HESTER 1960-09-06 15:00:00 TS 20.8133 145.645 main 1669 1648 PPP______PPP__ WP191960 20.6425 145.493 27 -1 21.1800 145.935 9 1007 0 0 21.1225 145.935 1 29 1007 20.6425 145.493 TC 27 20.6500 145.521 1 26 20.6425 145.493 27 1002 150 4 358
1960248N15148 1960 67 WP MM HESTER 1960-09-06 18:00:00 TS 21.0000 145.640 1008 tokyo main 1648 1630 OOO______OPO__ jtwc_wp WP191960 20.8000 145.400 30 -1 21.4000 146.100 9 1008 0 0 0 21.4000 146.100 1 29 1008 20.8000 145.400 TC 30 20.8000 145.442 1 27 20.8000 145.400 30 1003 120 4 0
1960248N15148 1960 67 WP MM HESTER 1960-09-06 21:00:00 TS 21.1679 145.666 main 1630 1620 PPP______PPP__ WP191960 20.9500 145.342 30 -1 21.6000 146.300 9 1008 0 0 21.6075 146.300 1 29 1008 20.9500 145.342 TC 30 20.9500 145.368 1 28 20.9500 145.342 30 1003 120 3 10
1960248N15148 1960 67 WP MM HESTER 1960-09-07 00:00:00 TS 21.3333 145.700 1008 tokyo main 1620 1599 OOO______OOO__ jtwc_wp WP191960 21.1000 145.300 30 -1 21.8000 146.500 9 1008 0 0 0 21.8000 146.500 1 29 1008 21.1000 145.300 TC 30 21.1000 145.300 1 30 21.1000 145.300 30 1003 120 4 10
1960248N15148 1960 67 WP MM HESTER 1960-09-07 03:00:00 TS 21.5167 145.726 main 1599 1578 PPP______PPP__ WP191960 21.2500 145.250 30 -1 22.0500 146.680 9 1007 0 0 22.0500 146.680 1 29 1007 21.2500 145.250 TC 30 21.2500 145.247 1 31 21.2500 145.250 30 1003 120 4 6
1960248N15148 1960 67 WP MM HESTER 1960-09-07 06:00:00 TS 21.7000 145.733 1006 tokyo main 1578 1557 OOO______OPO__ jtwc_wp WP191960 21.4000 145.200 30 -1 22.3000 146.800 9 1006 0 0 0 22.3000 146.800 1 29 1006 21.4000 145.200 TC 30 21.4000 145.200 1 32 21.4000 145.200 30 1003 120 4 357
1960248N15148 1960 67 WP MM HESTER 1960-09-07 09:00:00 TS 21.8766 145.721 main 1557 1546 PPP______PPP__ WP191960 21.5500 145.150 32 -1 22.5299 146.860 9 1006 0 0 22.5299 146.860 1 29 1006 21.5500 145.150 TC 32 21.5500 145.153 1 33 21.5500 145.150 32 1002 120 3 350
1960248N15148 1960 67 WP MM HESTER 1960-09-07 12:00:00 TS 22.0333 145.667 1006 tokyo main 1546 1522 OOO______OOO__ jtwc_wp WP191960 21.7000 145.100 35 0 22.7000 146.800 9 1006 0 0 0 22.7000 146.800 1 29 1006 21.7000 145.100 TC 35 21.7000 145.100 2 35 21.7000 145.100 35 1002 120 3 333
1960248N15148 1960 67 WP MM HESTER 1960-09-07 15:00:00 TS 22.1607 145.568 main 1522 1504 PPP______PPP__ WP191960 21.8500 145.057 35 0 22.7800 146.603 9 1006 0 0 22.7800 146.603 1 29 1006 21.8500 145.057 TC 35 21.8541 145.032 2 35 21.8500 145.057 35 1001 120 3 316
1960248N15148 1960 67 WP MM HESTER 1960-09-07 18:00:00 TS 22.2679 145.426 1006 tokyo main 1504 1490 OOO______OPO__ jtwc_wp WP191960 22.0000 145.000 35 0 22.8000 146.300 9 1006 0 0 0 22.8000 146.300 1 29 1006 22.0000 145.000 TC 35 22.0075 144.958 2 35 22.0000 145.000 35 1001 120 4 305
1960248N15148 1960 67 WP MM HESTER 1960-09-07 21:00:00 TS 22.3691 145.252 main 1490 1473 PPP______PPP__ WP191960 22.1500 144.900 35 0 22.8075 145.965 9 1005 0 0 22.8000 145.965 1 33 1003 22.1500 144.900 TC 35 22.1572 144.879 2 35 22.1500 144.900 35 1000 120 4 301
1960248N15148 1960 67 WP MM HESTER 1960-09-08 00:00:00 TS 22.4667 145.067 1004 tokyo main 1473 1456 OOO______OOO__ jtwc_wp WP191960 22.3000 144.800 35 0 22.8000 145.600 9 1004 0 0 0 22.8000 145.600 2 38 1000 22.3000 144.800 TC 35 22.3000 144.800 2 35 22.3000 144.800 35 1000 120 4 303
1960248N15148 1960 67 WP MM HESTER 1960-09-08 03:00:00 TS 22.5680 144.922 main 1456 1442 PPP______PPP__ WP191960 22.4575 144.750 35 0 22.7775 145.242 9 1002 0 0 22.8350 145.242 2 38 999 22.4575 144.750 TC 35 22.4234 144.797 2 36 22.4575 144.750 35 999 120 3 308
1960248N15148 1960 67 WP MM HESTER 1960-09-08 06:00:00 TS 22.6736 144.781 1000 tokyo main 1442 1428 OOO______OPO__ jtwc_wp WP191960 22.6000 144.700 35 0 22.8000 144.900 9 1000 0 0 0 22.9000 144.900 2 38 998 22.6000 144.700 TC 35 22.5413 144.784 2 37 22.6000 144.700 35 998 120 3 310
1960248N15148 1960 67 WP MM HESTER 1960-09-08 09:00:00 TS 22.7779 144.650 main 1425 1411 PPP______PPP__ WP191960 22.6922 144.667 37 0 22.9349 144.600 9 1001 0 0 22.9924 144.592 2 38 998 22.6922 144.667 TC 37 22.6636 144.703 2 38 22.6922 144.667 37 997 120 4 305
1960248N15148 1960 67 WP MM HESTER 1960-09-08 12:00:00 TS 22.9000 144.433 1002 tokyo main 1408 1378 OOO______OOO__ jtwc_wp WP191960 22.8000 144.500 40 0 23.1000 144.300 9 1002 0 0 0 23.1000 144.300 2 38 998 22.8000 144.500 TC 40 22.8000 144.500 2 40 22.8000 144.500 40 996 120 6 297
1960248N15148 1960 67 WP MM HESTER 1960-09-08 15:00:00 TS 23.0637 144.046 main 1375 1354 PPP______PPP__ WP191960 22.9927 144.068 40 0 23.2150 143.950 9 1003 0 0 23.2074 144.008 2 38 998 22.9927 144.068 TC 40 22.9816 144.113 2 40 22.9927 144.068 40 995 120 9 292
1960248N15148 1960 67 WP MM HESTER 1960-09-08 18:00:00 TS 23.2289 143.567 1004 tokyo main 1354 1317 OOO______OPO__ jtwc_wp WP191960 23.2000 143.500 40 0 23.3000 143.600 9 1004 0 0 0 23.3000 143.700 2 38 998 23.2000 143.500 TC 40 23.1734 143.601 2 40 23.2000 143.500 40 994 120 9 289
1960248N15148 1960 67 WP MM HESTER 1960-09-08 21:00:00 TS 23.3666 143.103 main 1317 1288 PPP______PPP__ WP191960 23.3724 142.958 40 0 23.3645 143.337 9 1005 0 0 23.3647 143.395 2 38 999 23.3724 142.958 TC 40 23.3533 143.013 2 40 23.3724 142.958 40 994 120 9 285
1960248N15148 1960 67 WP MM HESTER 1960-09-09 00:00:00 TS 23.4667 142.600 1006 tokyo main 1288 1264 OOO______OOO__ jtwc_wp WP191960 23.5000 142.400 40 0 23.4000 143.000 9 1006 0 0 0 23.4000 143.000 2 38 1000 23.5000 142.400 TC 40 23.5000 142.400 2 40 23.5000 142.400 40 994 120 10 279
1960248N15148 1960 67 WP MM HESTER 1960-09-09 03:00:00 TS 23.5161 142.056 main 1264 1236 PPP______PPP__ WP191960 23.5647 141.857 40 0 23.4151 142.453 9 1006 0 0 23.4150 142.445 2 38 1000 23.5647 141.857 TC 40 23.5726 141.866 2 40 23.5647 141.857 40 994 120 10 274
1960248N15148 1960 67 WP MM HESTER 1960-09-09 06:00:00 TS 23.5355 141.469 1006 tokyo main 1236 1211 OOO______OPO__ jtwc_wp WP191960 23.6000 141.300 40 0 23.4000 141.800 9 1006 0 0 0 23.4000 141.800 2 38 1000 23.6000 141.300 TC 40 23.6132 141.315 2 40 23.6000 141.300 40 994 120 11 271
1960248N15148 1960 67 WP MM HESTER 1960-09-09 09:00:00 TS 23.5418 140.869 main 1211 1178 PPP______PPP__ WP191960 23.6347 140.722 40 0 23.3498 141.157 9 1007 0 0 23.3498 141.157 2 33 1002 23.6347 140.722 TC 40 23.6473 140.732 2 40 23.6347 140.722 40 994 120 11 272
1960248N15148 1960 67 WP MM HESTER 1960-09-09 12:00:00 TS 23.5667 140.233 1008 tokyo main 1174 1154 OOO______OOO__ jtwc_wp WP191960 23.7000 140.100 40 0 23.3000 140.500 9 1008 0 0 0 23.3000 140.500 1 29 1004 23.7000 140.100 TC 40 23.7000 140.100 2 40 23.7000 140.100 40 995 120 12 274
1960248N15148 1960 67 WP MM HESTER 1960-09-09 15:00:00 TS 23.6302 139.561 main 1154 1113 PPP______PPP__ WP191960 23.8422 139.430 40 0 23.2324 139.834 9 1009 0 0 23.2324 139.834 1 1007 23.8422 139.430 TC 40 23.7901 139.409 2 38 23.8422 139.430 40 996 120 13 279
1960248N15148 1960 67 WP MM HESTER 1960-09-09 18:00:00 TS 23.7652 138.855 1010 tokyo main 1113 1071 OOO______OPO__ jtwc_wp WP191960 24.0000 138.700 40 0 23.3000 139.200 2 1010 0 0 0 23.3000 139.200 0 1010 24.0000 138.700 TC 40 23.9115 138.668 2 37 24.0000 138.700 40 998 120 14 283
1960248N15148 1960 67 WP MM HESTER 1960-09-09 21:00:00 TS 23.9375 138.112 main 1065 1002 PPP______PPP__ WP191960 24.0775 137.899 37 0 23.6175 138.598 2 1011 0 0 23.6227 138.631 0 1011 24.0775 137.899 TC 37 24.0521 137.893 2 36 24.0775 137.899 37 999 120 14 287
1960248N15148 1960 67 WP MM HESTER 1960-09-10 00:00:00 TS 24.1667 137.433 1012 tokyo main 996 945 OOO______OOO__ jtwc_wp WP191960 24.2000 137.100 35 0 24.1000 138.100 2 1012 0 0 0 24.1000 138.100 0 1012 24.2000 137.100 TC 35 24.2000 137.100 2 35 24.2000 137.100 35 1001 120 12 299
1960248N15148 1960 67 WP MM HESTER 1960-09-10 03:00:00 TS 24.5225 136.936 main 940 882 PP_______P_P__ WP191960 24.4578 136.376 25 -1 24.6196 137.777 2 1012 0 0 0 24.4578 136.376 TC 25 2 24.4578 136.376 25 1002 90 11 323
1960248N15148 1960 67 WP MM HESTER 1960-09-10 06:00:00 TS 25.0286 136.729 1012 tokyo main 882 836 OO_______O_O__ jtwc_wp WP191960 24.8000 135.700 15 -1 25.2000 137.500 2 1012 0 0 0 24.8000 135.700 TC 15 2 24.8000 135.700 15 1003 60 13 7
1960248N15148 1960 67 WP MM HESTER 1960-09-10 09:00:00 TS 25.8001 137.108 main 836 759 _P____________ WP191960 -1 25.8001 137.108 2 1012 0 0 TC 2 14 0
1960248N15148 1960 67 WP MM HESTER 1960-09-10 12:00:00 TS 26.4000 136.700 1012 tokyo main 759 697 _O____________ -1 26.4000 136.700 2 1012 0 0 0 14 330
1960248N15148 1960 67 WP MM HESTER 1960-09-10 15:00:00 TS 26.9723 136.350 main 683 622 _P____________ -1 26.9723 136.350 2 1012 0 0 13 330
1960248N15148 1960 67 WP MM HESTER 1960-09-10 18:00:00 TS 27.5000 136.000 1012 tokyo main 622 562 _O____________ -1 27.5000 136.000 2 1012 0 0 0 12 325
1960248N15148 1960 67 WP MM HESTER 1960-09-10 21:00:00 TS 27.9577 135.577 main 554 495 _P____________ -1 27.9577 135.577 2 1013 0 0 11 322
1960248N15148 1960 67 WP MM HESTER 1960-09-11 00:00:00 TS 28.4000 135.200 1014 tokyo main 495 444 _O____________ -1 28.4000 135.200 2 1014 0 0 0 11 331
1960248N15148 1960 67 WP MM HESTER 1960-09-11 03:00:00 TS 28.9073 134.977 main 444 394 _P____________ -1 28.9073 134.977 2 1013 0 0 11 341
1960248N15148 1960 67 WP MM HESTER 1960-09-11 06:00:00 TS 29.4000 134.800 1012 tokyo main 394 354 _O____________ -1 29.4000 134.800 2 1012 0 0 0 10 339
1960248N15148 1960 67 WP MM HESTER 1960-09-11 09:00:00 TS 29.8227 134.571 main 354 304 _P____________ -1 29.8227 134.571 2 1013 0 0 9 332
1960248N15148 1960 67 WP MM HESTER 1960-09-11 12:00:00 TS 30.2000 134.300 1014 tokyo main 304 _O____________ -1 30.2000 134.300 2 1014 0 0 0 9 328

Digital Typhoon Data and Search

About IBTrACS Database

This database is a web-friendly format of International Best Track Archive for Climate Stewardship (IBTrACS), a global best track data archive curated by NOAA dating back to 1842.

Updated: 2021-12-06